Bell, FL (32619)

8:08 AM EDT on September 30, 2014 (GMT -0400)
Gilchrist County | Change Station
CLOSE
Current Station
Personal Weather Station
Location: .Trenton, FL
Elevation: 86 ft
Nearby Weather Stations

Elev 86 ft 29.67 °N, 82.70 °W | Updated 1 second ago

Overcast
Overcast
73.1 °F
Feels Like 73.1 °F
N
1.2
Wind Variable Wind from NNE
Gusts 0.0 mph

Today
High -- | Low -- °F
--% Chance of Precip.
Yesterday
High -- | Low -- °F
Precip. -- in
7:23 AM 7:17 PM
Waxing Crescent, 36% visible
Pressure 29.86 in
Visibility 5.0 miles
Clouds Overcast 300 ft
Dew Point 72 °F
Humidity 95%
Rainfall 0.00 in
Snow Depth Not available.
UV 0.0 out of 12
Pollen 4.40 out of 12
Air Quality Not available.
Flu Activity Not available.
METAR KGNV 301153Z 35003KT 5SM BR OVC003 23/22 A2986 RMK AO2 CIG 002V008 SLP110 70062 T02280222 10233 20228 53016

More Conditions Fewer Conditions

Pressure 29.86 in
Visibility 5.0 miles
Clouds Overcast 300 ft
Dew Point 72 °F
Humidity 95%
Rainfall 0.00 in
Snow Depth Not available.
UV 0.0 out of 12
Pollen 4.40 out of 12
Air Quality Not available.
Flu Activity Not available.
METAR KGNV 301153Z 35003KT 5SM BR OVC003 23/22 A2986 RMK AO2 CIG 002V008 SLP110 70062 T02280222 10233 20228 53016

More Conditions Fewer Conditions

10-Day Weather Forecast

Almanac

Astronomy

Sep. 30, 2014 Rise Set
Actual Time 7:23 AM EDT 7:17 PM EDT
Civil Twilight 7:00 AM EDT 7:41 PM EDT
Nautical Twilight 6:32 AM EDT 8:09 PM EDT
Astronomical Twilight 6:04 AM EDT 8:37 PM EDT
Moon 1:11 PM EDT No Moon Set
Length of Visible Light 12h 41m
Length of Day
11h 54m
Tomorrow will be 1m 46s shorter.
Waxing Crescent, 36% of the Moon is Illuminated
Today
Waxing Crescent
Oct 1
First Quarter
Oct 8
Full
Oct 15
Last Quarter
Oct 23
New

Today's Extremes

State Highs State Lows

Community

WunderPhotos

Upload Photos

1,757,619 photos uploaded!

Nearby

Snow Depth

Station Depth Elevation
No new snow has been reported.

Earthquake Activity

City Distance Mag. Time & Date
No recent earthquake activity has been reported nearby.
Minimum magnitude displayed is 2.5.

Coastal Water Temperatures

Place Temperature
No Stations Reporting

Nearby Weather Stations